createdAt,value
2017-02-11T00:01:03.933Z,0
2017-02-11T00:02:15.028Z,0
2017-02-11T00:03:24.331Z,0
2017-02-11T00:04:35.023Z,0
2017-02-11T00:05:44.694Z,0
2017-02-11T00:06:54.214Z,0
2017-02-11T00:08:06.495Z,0
2017-02-11T00:09:18.740Z,0
2017-02-11T00:10:29.192Z,0
2017-02-11T00:11:39.402Z,0
2017-02-11T00:12:50.183Z,0
2017-02-11T00:14:02.079Z,0
2017-02-11T00:15:13.678Z,0
2017-02-11T00:16:24.147Z,0
2017-02-11T00:17:33.498Z,0
2017-02-11T00:18:42.878Z,0
2017-02-11T00:19:52.941Z,0
2017-02-11T00:21:02.171Z,0
2017-02-11T00:22:12.670Z,0
2017-02-11T00:23:22.647Z,0
2017-02-11T00:24:32.594Z,0
2017-02-11T00:25:42.259Z,0
2017-02-11T00:26:52.157Z,0
2017-02-11T00:28:02.259Z,0
2017-02-11T00:29:12.204Z,0
2017-02-11T00:30:22.737Z,0
2017-02-11T00:31:32.525Z,0
2017-02-11T00:32:41.534Z,0
2017-02-11T00:33:52.235Z,0
2017-02-11T00:35:03.023Z,0
2017-02-11T00:36:12.203Z,0
2017-02-11T00:37:21.179Z,0
2017-02-11T00:38:32.542Z,0
2017-02-11T00:39:44.083Z,0
2017-02-11T00:40:55.887Z,0
2017-02-11T00:42:05.534Z,0
2017-02-11T00:43:17.106Z,0
2017-02-11T00:44:26.358Z,0
2017-02-11T00:45:35.387Z,0
2017-02-11T00:46:44.335Z,0
2017-02-11T00:47:54.613Z,0
2017-02-11T00:49:04.167Z,0
2017-02-11T00:50:16.962Z,0
2017-02-11T00:51:28.431Z,0
2017-02-11T00:52:39.053Z,0
2017-02-11T00:53:49.702Z,0
2017-02-11T00:55:00.689Z,0
2017-02-11T00:56:11.733Z,0
2017-02-11T00:57:23.280Z,0
2017-02-11T00:58:32.403Z,0
2017-02-11T00:59:46.321Z,0
2017-02-11T01:00:57.324Z,0
2017-02-11T01:02:08.384Z,0
2017-02-11T01:03:19.709Z,0
2017-02-11T01:04:32.446Z,0
2017-02-11T01:05:46.883Z,0
2017-02-11T01:06:59.961Z,0
2017-02-11T01:08:11.879Z,0
2017-02-11T01:09:26.080Z,0
2017-02-11T01:10:37.843Z,0
2017-02-11T01:11:49.228Z,0
2017-02-11T01:13:00.256Z,0
2017-02-11T01:14:11.299Z,0
2017-02-11T01:15:21.131Z,0
2017-02-11T01:16:33.327Z,0
2017-02-11T01:17:42.378Z,0
2017-02-11T01:18:54.972Z,0
2017-02-11T01:20:05.886Z,0
2017-02-11T01:21:15.814Z,0
2017-02-11T01:22:27.146Z,0
2017-02-11T01:23:37.167Z,0
2017-02-11T01:24:46.200Z,0
2017-02-11T01:25:55.153Z,0
2017-02-11T01:27:04.506Z,0
2017-02-11T01:28:13.451Z,0
2017-02-11T01:29:22.494Z,0
2017-02-11T01:30:31.437Z,0
2017-02-11T01:31:40.794Z,0
2017-02-11T01:32:49.742Z,0
2017-02-11T01:33:58.691Z,0
2017-02-11T01:35:07.636Z,0
2017-02-11T01:36:16.609Z,0
2017-02-11T01:37:25.557Z,0
2017-02-11T01:38:34.599Z,0
2017-02-11T01:39:43.545Z,0
2017-02-11T01:40:52.573Z,0
2017-02-11T01:42:01.517Z,0
2017-02-11T01:43:10.464Z,0
2017-02-11T01:44:19.408Z,0
2017-02-11T01:45:28.361Z,0
2017-02-11T01:46:37.306Z,0
2017-02-11T01:47:46.252Z,0
2017-02-11T01:48:55.201Z,0
2017-02-11T01:50:04.565Z,0
2017-02-11T01:51:13.917Z,0
2017-02-11T01:52:22.863Z,0
2017-02-11T01:53:31.898Z,0
2017-02-11T01:54:40.839Z,0
2017-02-11T01:55:49.785Z,0
2017-02-11T01:56:58.730Z,0
2017-02-11T01:58:08.171Z,0
2017-02-11T01:59:17.114Z,0
2017-02-11T02:00:26.064Z,0
2017-02-11T02:01:35.009Z,0
2017-02-11T02:02:43.960Z,0
2017-02-11T02:03:52.907Z,0
2017-02-11T02:05:01.941Z,0
2017-02-11T02:06:10.974Z,0
2017-02-11T02:07:19.921Z,0
2017-02-11T02:08:28.867Z,0
2017-02-11T02:09:37.810Z,0
2017-02-11T02:10:46.846Z,0
2017-02-11T02:11:55.791Z,0
2017-02-11T02:13:04.734Z,0
2017-02-11T02:14:13.679Z,0
2017-02-11T02:15:22.632Z,0
2017-02-11T02:16:31.751Z,0
2017-02-11T02:17:41.104Z,0
2017-02-11T02:18:50.064Z,0
2017-02-11T02:19:59.007Z,0
2017-02-11T02:21:07.957Z,0
2017-02-11T02:22:16.910Z,0
2017-02-11T02:23:26.262Z,0
2017-02-11T02:24:35.230Z,0
2017-02-11T02:25:44.203Z,0
2017-02-11T02:26:53.252Z,0
2017-02-11T02:28:02.201Z,0
2017-02-11T02:29:11.158Z,0
2017-02-11T02:30:20.120Z,0
2017-02-11T02:31:29.068Z,0
2017-02-11T02:32:38.020Z,0
2017-02-11T02:33:46.972Z,0
2017-02-11T02:34:55.928Z,0
2017-02-11T02:36:04.880Z,0
2017-02-11T02:37:13.914Z,0
2017-02-11T02:38:22.862Z,0
2017-02-11T02:39:31.808Z,0
2017-02-11T02:40:41.155Z,0
2017-02-11T02:41:50.105Z,0
2017-02-11T02:42:59.962Z,0
2017-02-11T02:44:08.926Z,0
2017-02-11T02:45:17.871Z,0
2017-02-11T02:46:26.816Z,0
2017-02-11T02:47:35.770Z,0
2017-02-11T02:48:44.723Z,0
2017-02-11T02:49:53.759Z,0
2017-02-11T02:51:02.799Z,0
2017-02-11T02:52:11.745Z,0
2017-02-11T02:53:20.695Z,0
2017-02-11T02:54:29.646Z,0
2017-02-11T02:55:38.595Z,0
2017-02-11T02:56:47.550Z,0
2017-02-11T02:57:56.501Z,0
2017-02-11T02:59:05.948Z,0
2017-02-11T03:00:14.896Z,0
2017-02-11T03:01:23.841Z,0
2017-02-11T03:02:32.793Z,0
2017-02-11T03:03:41.744Z,0
2017-02-11T03:04:50.689Z,0
2017-02-11T03:05:59.757Z,0
2017-02-11T03:07:08.715Z,0
2017-02-11T03:08:17.749Z,0
2017-02-11T03:09:26.732Z,0
2017-02-11T03:10:35.681Z,0
2017-02-11T03:11:44.631Z,0
2017-02-11T03:12:54.079Z,0
2017-02-11T03:14:03.031Z,0
2017-02-11T03:15:11.978Z,0
2017-02-11T03:16:21.014Z,0
2017-02-11T03:17:29.959Z,0
2017-02-11T03:18:39.312Z,0
2017-02-11T03:19:48.255Z,0
2017-02-11T03:20:57.198Z,0
2017-02-11T03:22:06.147Z,0
2017-02-11T03:23:15.095Z,0
2017-02-11T03:24:24.044Z,0
2017-02-11T03:25:32.990Z,0
2017-02-11T03:26:41.936Z,0
2017-02-11T03:27:50.883Z,0
2017-02-11T03:28:59.825Z,0
2017-02-11T03:30:08.775Z,0
2017-02-11T03:31:17.722Z,0
2017-02-11T03:32:26.758Z,0
2017-02-11T03:33:35.706Z,0
2017-02-11T03:34:44.654Z,0
2017-02-11T03:35:53.599Z,0
2017-02-11T03:37:02.541Z,0
2017-02-11T03:38:11.492Z,0
2017-02-11T03:39:20.435Z,0
2017-02-11T03:40:29.391Z,0
2017-02-11T03:41:38.340Z,0
2017-02-11T03:42:47.300Z,0
2017-02-11T03:43:56.248Z,0
2017-02-11T03:45:05.196Z,0
2017-02-11T03:46:14.152Z,0
2017-02-11T03:47:23.101Z,0
2017-02-11T03:48:32.045Z,0
2017-02-11T03:49:40.988Z,0
2017-02-11T03:50:49.936Z,0
2017-02-11T03:51:58.973Z,0
2017-02-11T03:53:07.925Z,0
2017-02-11T03:54:16.875Z,0
2017-02-11T03:55:25.830Z,0
2017-02-11T03:56:34.781Z,0
2017-02-11T03:57:43.726Z,0
2017-02-11T03:58:52.678Z,0
2017-02-11T04:00:01.630Z,0
2017-02-11T04:01:10.575Z,0
2017-02-11T04:02:19.522Z,0
2017-02-11T04:03:28.469Z,0
2017-02-11T04:04:37.421Z,0
2017-02-11T04:05:46.367Z,0
2017-02-11T04:06:55.314Z,0
2017-02-11T04:08:04.263Z,0
2017-02-11T04:09:13.214Z,0
2017-02-11T04:10:22.568Z,0
2017-02-11T04:11:31.512Z,0
2017-02-11T04:12:40.459Z,0
2017-02-11T04:13:49.407Z,0
2017-02-11T04:14:58.349Z,0
2017-02-11T04:16:07.296Z,0
2017-02-11T04:17:16.246Z,0
2017-02-11T04:18:25.198Z,0
2017-02-11T04:19:34.150Z,0
2017-02-11T04:20:43.594Z,0
2017-02-11T04:21:52.535Z,0
2017-02-11T04:23:01.485Z,0
2017-02-11T04:24:10.430Z,0
2017-02-11T04:25:19.376Z,0
2017-02-11T04:26:28.316Z,0
2017-02-11T04:27:37.259Z,0
2017-02-11T04:28:46.207Z,0
2017-02-11T04:29:55.154Z,0
2017-02-11T04:31:04.101Z,0
2017-02-11T04:32:13.145Z,0
2017-02-11T04:33:22.116Z,0
2017-02-11T04:34:31.060Z,0
2017-02-11T04:35:40.057Z,0
2017-02-11T04:36:49.003Z,0
2017-02-11T04:37:58.038Z,0
2017-02-11T04:39:06.987Z,0
2017-02-11T04:40:15.931Z,0
2017-02-11T04:41:24.967Z,0
2017-02-11T04:42:33.920Z,0
2017-02-11T04:43:42.870Z,0
2017-02-11T04:44:51.820Z,0
2017-02-11T04:46:00.855Z,0
2017-02-11T04:47:09.811Z,0
2017-02-11T04:48:18.759Z,0
2017-02-11T04:49:27.797Z,0
2017-02-11T04:50:36.744Z,0
2017-02-11T04:51:45.729Z,0
2017-02-11T04:52:55.495Z,0
2017-02-11T04:54:04.444Z,0
2017-02-11T04:55:13.494Z,0
2017-02-11T04:56:22.885Z,0
2017-02-11T04:57:31.836Z,0
2017-02-11T04:58:40.785Z,0
2017-02-11T04:59:49.852Z,0
2017-02-11T05:00:58.802Z,0
2017-02-11T05:02:08.155Z,0
2017-02-11T05:03:17.098Z,0
2017-02-11T05:04:26.052Z,0
2017-02-11T05:05:35.405Z,0
2017-02-11T05:06:44.352Z,0
2017-02-11T05:07:53.299Z,0
2017-02-11T05:09:02.242Z,0
2017-02-11T05:10:11.193Z,0
2017-02-11T05:11:20.139Z,0
2017-02-11T05:12:29.082Z,0
2017-02-11T05:13:38.460Z,0
2017-02-11T05:14:47.402Z,0
2017-02-11T05:15:56.347Z,0
2017-02-11T05:17:05.293Z,0
2017-02-11T05:18:14.413Z,0
2017-02-11T05:19:23.369Z,0
2017-02-11T05:20:32.313Z,0
2017-02-11T05:21:41.259Z,0
2017-02-11T05:22:50.202Z,0
2017-02-11T05:23:59.151Z,0
2017-02-11T05:25:08.104Z,0
2017-02-11T05:26:17.138Z,0
2017-02-11T05:27:26.176Z,0
2017-02-11T05:28:35.123Z,0
2017-02-11T05:29:44.071Z,0
2017-02-11T05:30:53.119Z,0
2017-02-11T05:32:02.071Z,0
2017-02-11T05:33:11.072Z,0
2017-02-11T05:34:20.017Z,0
2017-02-11T05:35:28.964Z,0
2017-02-11T05:36:37.909Z,0
2017-02-11T05:37:46.855Z,0
2017-02-11T05:38:55.800Z,0
2017-02-11T05:40:04.781Z,0
2017-02-11T05:41:13.732Z,0
2017-02-11T05:42:22.770Z,0
2017-02-11T05:43:31.724Z,0
2017-02-11T05:44:40.670Z,0
2017-02-11T05:45:49.646Z,0
2017-02-11T05:46:58.683Z,0
2017-02-11T05:48:07.720Z,0
2017-02-11T05:49:16.664Z,0
2017-02-11T05:50:26.038Z,0
2017-02-11T05:51:34.987Z,0
2017-02-11T05:52:43.934Z,0
2017-02-11T05:53:52.884Z,0
2017-02-11T05:55:01.929Z,0
2017-02-11T05:56:10.966Z,0
2017-02-11T05:57:20.009Z,0
2017-02-11T05:58:28.963Z,0
2017-02-11T05:59:37.909Z,0
2017-02-11T06:00:46.852Z,0
2017-02-11T06:01:55.801Z,0
2017-02-11T06:03:04.746Z,0
2017-02-11T06:04:13.692Z,0
2017-02-11T06:05:22.642Z,0
2017-02-11T06:06:31.993Z,0
2017-02-11T06:07:40.937Z,0
2017-02-11T06:08:49.981Z,0
2017-02-11T06:09:58.927Z,0
2017-02-11T06:11:07.961Z,0
2017-02-11T06:12:16.907Z,0
2017-02-11T06:13:25.858Z,0
2017-02-11T06:14:34.807Z,0
2017-02-11T06:15:43.841Z,0
2017-02-11T06:16:53.201Z,0
2017-02-11T06:18:02.155Z,0
2017-02-11T06:19:11.189Z,0
2017-02-11T06:20:20.136Z,0
2017-02-11T06:21:29.088Z,0
2017-02-11T06:22:38.040Z,0
2017-02-11T06:23:46.988Z,0
2017-02-11T06:24:55.940Z,0
2017-02-11T06:26:04.890Z,0
2017-02-11T06:27:13.845Z,0
2017-02-11T06:28:22.881Z,0
2017-02-11T06:29:31.830Z,0
2017-02-11T06:30:40.778Z,0
2017-02-11T06:31:49.720Z,0
2017-02-11T06:32:58.760Z,0
2017-02-11T06:34:07.703Z,0
2017-02-11T06:35:16.644Z,0
2017-02-11T06:36:25.595Z,0
2017-02-11T06:37:34.544Z,5
2017-02-11T06:38:43.492Z,5
2017-02-11T06:39:52.527Z,5
2017-02-11T06:41:01.478Z,5
2017-02-11T06:42:10.831Z,5
2017-02-11T06:43:19.872Z,5
2017-02-11T06:44:28.904Z,5
2017-02-11T06:45:37.849Z,5
2017-02-11T06:46:46.799Z,10
2017-02-11T06:47:55.782Z,10
2017-02-11T06:49:04.816Z,10
2017-02-11T06:50:13.763Z,10
2017-02-11T06:51:22.713Z,15
2017-02-11T06:52:31.657Z,15
2017-02-11T06:53:40.599Z,15
2017-02-11T06:54:49.550Z,15
2017-02-11T06:55:58.500Z,20
2017-02-11T06:57:07.449Z,20
2017-02-11T06:58:16.394Z,20
2017-02-11T06:59:25.338Z,20
2017-02-11T07:00:34.289Z,20
2017-02-11T07:01:43.664Z,20
2017-02-11T07:02:52.612Z,20
2017-02-11T07:04:01.998Z,20
2017-02-11T07:05:10.953Z,25
2017-02-11T07:06:19.905Z,25
2017-02-11T07:07:28.944Z,25
2017-02-11T07:08:37.891Z,25
2017-02-11T07:09:46.835Z,25
2017-02-11T07:10:55.786Z,25
2017-02-11T07:12:04.732Z,25
2017-02-11T07:13:13.686Z,25
2017-02-11T07:14:23.041Z,25
2017-02-11T07:15:31.986Z,25
2017-02-11T07:16:40.930Z,25
2017-02-11T07:17:50.278Z,25
2017-02-11T07:18:59.231Z,25
2017-02-11T07:20:08.582Z,30
2017-02-11T07:21:17.527Z,30
2017-02-11T07:22:26.470Z,30
2017-02-11T07:23:35.825Z,30
2017-02-11T07:24:44.772Z,30
2017-02-11T07:25:53.752Z,35
2017-02-11T07:27:02.783Z,35
2017-02-11T07:28:11.735Z,35
2017-02-11T07:29:20.685Z,40
2017-02-11T07:30:29.636Z,40
2017-02-11T07:31:38.756Z,40
2017-02-11T07:32:47.703Z,40
2017-02-11T07:33:56.648Z,40
2017-02-11T07:35:05.594Z,40
2017-02-11T07:36:14.543Z,40
2017-02-11T07:37:23.489Z,40
2017-02-11T07:38:32.521Z,40
2017-02-11T07:39:41.468Z,40
2017-02-11T07:40:50.413Z,40
2017-02-11T07:42:00.091Z,40
2017-02-11T07:43:09.039Z,40
2017-02-11T07:44:19.747Z,40
2017-02-11T07:45:29.656Z,40
2017-02-11T07:46:39.457Z,40
2017-02-11T07:47:49.465Z,45
2017-02-11T07:48:59.052Z,45
2017-02-11T07:50:09.578Z,45
2017-02-11T07:51:19.679Z,50
2017-02-11T07:52:29.380Z,50
2017-02-11T07:53:38.324Z,50
2017-02-11T07:54:48.254Z,50
2017-02-11T07:55:57.419Z,50
2017-02-11T07:57:08.083Z,55
2017-02-11T07:58:19.115Z,55
2017-02-11T07:59:29.563Z,55
2017-02-11T08:00:38.841Z,60
2017-02-11T08:01:48.738Z,60
2017-02-11T08:02:57.952Z,60
2017-02-11T08:04:06.895Z,60
2017-02-11T08:05:16.957Z,65
2017-02-11T08:06:25.906Z,65
2017-02-11T08:07:34.941Z,65
2017-02-11T08:08:44.287Z,65
2017-02-11T08:09:53.575Z,70
2017-02-11T08:11:02.886Z,70
2017-02-11T08:12:11.835Z,70
2017-02-11T08:13:22.309Z,70
2017-02-11T08:14:31.930Z,70
2017-02-11T08:15:41.643Z,70
2017-02-11T08:16:50.881Z,70
2017-02-11T08:18:00.519Z,70
2017-02-11T08:19:09.975Z,70
2017-02-11T08:20:18.922Z,70
2017-02-11T08:21:27.866Z,70
2017-02-11T08:22:37.982Z,70
2017-02-11T08:23:47.571Z,70
2017-02-11T08:24:57.700Z,70
2017-02-11T08:26:06.800Z,70
2017-02-11T08:27:16.580Z,70
2017-02-11T08:28:25.794Z,70
2017-02-11T08:29:34.910Z,70
2017-02-11T08:30:43.856Z,75
2017-02-11T08:31:52.841Z,75
2017-02-11T08:33:01.785Z,75
2017-02-11T08:34:10.731Z,75
2017-02-11T08:35:20.053Z,75
2017-02-11T08:36:30.149Z,75
2017-02-11T08:37:39.099Z,75
2017-02-11T08:38:48.123Z,75
2017-02-11T08:39:58.865Z,70
2017-02-11T08:41:09.753Z,70
2017-02-11T08:42:19.782Z,70
2017-02-11T08:43:28.731Z,70
2017-02-11T08:44:38.090Z,70
2017-02-11T08:45:49.291Z,65
2017-02-11T08:46:58.563Z,65
2017-02-11T08:48:07.510Z,65
2017-02-11T08:49:16.468Z,70
2017-02-11T08:50:25.496Z,70
2017-02-11T08:51:35.705Z,70
2017-02-11T08:52:45.598Z,70
2017-02-11T08:53:54.882Z,70
2017-02-11T08:55:04.245Z,70
2017-02-11T08:56:13.202Z,75
2017-02-11T08:57:22.182Z,75
2017-02-11T08:58:31.252Z,75
2017-02-11T08:59:40.236Z,75
2017-02-11T09:00:49.301Z,75
2017-02-11T09:01:58.290Z,75
2017-02-11T09:03:07.366Z,75
2017-02-11T09:04:16.338Z,75
2017-02-11T09:05:25.335Z,75
2017-02-11T09:06:34.384Z,75
2017-02-11T09:07:44.010Z,75
2017-02-11T09:08:52.983Z,75
2017-02-11T09:10:01.980Z,80
2017-02-11T09:11:12.265Z,80
2017-02-11T09:12:21.503Z,80
2017-02-11T09:13:30.632Z,85
2017-02-11T09:14:39.679Z,85
2017-02-11T09:15:49.349Z,85
2017-02-11T09:16:58.670Z,85
2017-02-11T09:18:07.975Z,85
2017-02-11T09:19:18.254Z,85
2017-02-11T09:20:27.216Z,85
2017-02-11T09:21:36.161Z,85
2017-02-11T09:22:45.117Z,85
2017-02-11T09:23:54.068Z,85
2017-02-11T09:25:03.425Z,85
2017-02-11T09:26:12.372Z,85
2017-02-11T09:27:21.329Z,85
2017-02-11T09:28:30.282Z,85
2017-02-11T09:29:39.245Z,85
2017-02-11T09:30:48.231Z,85
2017-02-11T09:31:57.587Z,85
2017-02-11T09:33:06.538Z,90
2017-02-11T09:34:15.487Z,90
2017-02-11T09:35:24.837Z,90
2017-02-11T09:36:33.799Z,90
2017-02-11T09:37:42.779Z,95
2017-02-11T09:38:51.760Z,95
2017-02-11T09:40:00.816Z,95
2017-02-11T09:41:09.839Z,100
2017-02-11T09:42:18.882Z,100
2017-02-11T09:43:27.967Z,100
2017-02-11T09:44:36.934Z,100
2017-02-11T09:45:45.997Z,100
2017-02-11T09:46:54.970Z,100
2017-02-11T09:48:04.359Z,100
2017-02-11T09:49:13.351Z,100
2017-02-11T09:50:22.340Z,100
2017-02-11T09:51:31.410Z,105
2017-02-11T09:52:40.378Z,105
2017-02-11T09:53:49.324Z,105
2017-02-11T09:54:58.303Z,110
2017-02-11T09:56:07.464Z,110
2017-02-11T09:57:16.415Z,110
2017-02-11T09:58:26.033Z,110
2017-02-11T10:00:00.791Z,110
2017-02-11T10:01:09.741Z,115
2017-02-11T10:02:18.865Z,110
2017-02-11T10:03:29.070Z,110
2017-02-11T10:04:38.171Z,110
2017-02-11T10:05:47.525Z,105
2017-02-11T10:06:56.833Z,100
2017-02-11T10:08:06.191Z,100
2017-02-11T10:09:15.815Z,95
2017-02-11T10:10:24.782Z,95
2017-02-11T10:11:34.026Z,90
2017-02-11T10:12:42.973Z,90
2017-02-11T10:13:51.927Z,90
2017-02-11T10:15:00.877Z,90
2017-02-11T10:16:09.914Z,85
2017-02-11T10:17:19.691Z,80
2017-02-11T10:18:28.639Z,80
2017-02-11T10:19:37.585Z,80
2017-02-11T10:20:46.536Z,80
2017-02-11T10:21:55.488Z,80
2017-02-11T10:23:04.843Z,80
2017-02-11T10:24:13.789Z,80
2017-02-11T10:25:22.737Z,80
2017-02-11T10:26:31.691Z,80
2017-02-11T10:27:40.637Z,80
2017-02-11T10:28:49.597Z,80
2017-02-11T10:29:58.716Z,80
2017-02-11T10:31:08.279Z,75
2017-02-11T10:32:17.506Z,80
2017-02-11T10:33:26.473Z,80
2017-02-11T10:34:35.448Z,80
2017-02-11T10:35:44.540Z,80
2017-02-11T10:36:53.483Z,80
2017-02-11T10:38:03.125Z,85
2017-02-11T10:39:12.072Z,85
2017-02-11T10:40:21.019Z,85
2017-02-11T10:41:29.968Z,85
2017-02-11T10:42:40.181Z,85
2017-02-11T10:43:50.103Z,85
2017-02-11T10:44:59.791Z,85
2017-02-11T10:46:09.416Z,85
2017-02-11T10:47:18.362Z,90
2017-02-11T10:48:27.317Z,90
2017-02-11T10:49:36.346Z,95
2017-02-11T10:50:45.297Z,95
2017-02-11T10:51:54.950Z,105
2017-02-11T10:53:03.897Z,105
2017-02-11T10:54:12.998Z,105
2017-02-11T10:55:21.955Z,100
2017-02-11T10:56:30.900Z,95
2017-02-11T10:57:39.844Z,90
2017-02-11T10:58:49.145Z,90
2017-02-11T10:59:58.915Z,85
2017-02-11T11:01:08.817Z,85
2017-02-11T11:02:17.769Z,85
2017-02-11T11:03:26.716Z,85
2017-02-11T11:04:35.756Z,85
2017-02-11T11:05:44.711Z,85
2017-02-11T11:06:53.825Z,85
2017-02-11T11:08:03.285Z,80
2017-02-11T11:09:12.234Z,80
2017-02-11T11:10:21.190Z,85
2017-02-11T11:11:30.546Z,85
2017-02-11T11:12:39.508Z,90
2017-02-11T11:13:48.492Z,95
2017-02-11T11:14:57.444Z,100
2017-02-11T11:16:06.399Z,110
2017-02-11T11:17:15.345Z,120
2017-02-11T11:18:24.299Z,130
2017-02-11T11:19:33.245Z,145
2017-02-11T11:20:42.282Z,150
2017-02-11T11:21:51.231Z,160
2017-02-11T11:23:00.178Z,165
2017-02-11T11:24:09.129Z,170
2017-02-11T11:25:18.101Z,175
2017-02-11T11:26:27.052Z,170
2017-02-11T11:27:36.094Z,160
2017-02-11T11:28:45.044Z,150
2017-02-11T11:29:53.987Z,140
2017-02-11T11:31:02.953Z,140
2017-02-11T11:32:11.990Z,130
2017-02-11T11:33:21.365Z,125
2017-02-11T11:34:30.315Z,120
2017-02-11T11:35:39.262Z,120
2017-02-11T11:36:48.210Z,125
2017-02-11T11:37:57.158Z,130
2017-02-11T11:39:06.105Z,130
2017-02-11T11:40:15.146Z,130
2017-02-11T11:41:24.097Z,135
2017-02-11T11:42:33.047Z,135
2017-02-11T11:43:41.997Z,120
2017-02-11T11:44:51.038Z,105
2017-02-11T11:45:59.997Z,95
2017-02-11T11:47:09.036Z,95
2017-02-11T11:48:17.984Z,90
2017-02-11T11:49:26.934Z,85
2017-02-11T11:50:35.881Z,85
2017-02-11T11:51:45.237Z,90
2017-02-11T11:52:54.184Z,90
2017-02-11T11:54:03.136Z,95
2017-02-11T11:55:12.089Z,100
2017-02-11T11:56:21.036Z,105
2017-02-11T11:57:29.982Z,125
2017-02-11T11:58:38.931Z,125
2017-02-11T11:59:47.891Z,140
2017-02-11T12:00:57.666Z,145
2017-02-11T12:02:06.620Z,145
2017-02-11T12:03:15.976Z,145
2017-02-11T12:04:24.926Z,140
2017-02-11T12:05:34.286Z,135
2017-02-11T12:06:43.241Z,135
2017-02-11T12:07:52.282Z,130
2017-02-11T12:09:01.323Z,125
2017-02-11T12:10:10.276Z,120
2017-02-11T12:11:19.223Z,115
2017-02-11T12:12:28.170Z,115
2017-02-11T12:13:37.525Z,115
2017-02-11T12:14:46.482Z,110
2017-02-11T12:15:55.433Z,110
2017-02-11T12:17:04.381Z,110
2017-02-11T12:18:13.735Z,110
2017-02-11T12:19:22.680Z,105
2017-02-11T12:20:31.628Z,105
2017-02-11T12:21:40.755Z,105
2017-02-11T12:22:49.711Z,100
2017-02-11T12:23:58.662Z,100
2017-02-11T12:25:07.611Z,100
2017-02-11T12:26:16.647Z,100
2017-02-11T12:27:25.600Z,100
2017-02-11T12:28:34.546Z,100
2017-02-11T12:29:43.495Z,95
2017-02-11T12:30:52.446Z,90
2017-02-11T12:32:01.399Z,85
2017-02-11T12:33:10.347Z,85
2017-02-11T12:34:19.293Z,85
2017-02-11T12:35:28.244Z,85
2017-02-11T12:36:37.195Z,90
2017-02-11T12:37:46.147Z,85
2017-02-11T12:38:55.102Z,85
2017-02-11T12:40:04.456Z,90
2017-02-11T12:41:13.409Z,90
2017-02-11T12:42:22.361Z,85
2017-02-11T12:43:31.431Z,85
2017-02-11T12:44:40.379Z,90
2017-02-11T12:45:49.326Z,90
2017-02-11T12:46:58.272Z,95
2017-02-11T12:48:07.226Z,90
2017-02-11T12:49:16.175Z,90
2017-02-11T12:50:25.122Z,85
2017-02-11T12:51:34.161Z,80
2017-02-11T12:52:43.198Z,75
2017-02-11T12:53:52.149Z,65
2017-02-11T12:55:01.098Z,60
2017-02-11T12:56:10.052Z,50
2017-02-11T12:57:19.045Z,50
2017-02-11T12:58:27.994Z,45
2017-02-11T12:59:37.064Z,40
2017-02-11T13:00:46.016Z,40
2017-02-11T13:01:54.963Z,40
2017-02-11T13:03:04.325Z,40
2017-02-11T13:04:13.270Z,40
2017-02-11T13:05:22.216Z,40
2017-02-11T13:06:31.165Z,45
2017-02-11T13:07:40.207Z,45
2017-02-11T13:08:49.171Z,50
2017-02-11T13:09:58.209Z,50
2017-02-11T13:11:07.160Z,50
2017-02-11T13:12:16.111Z,50
2017-02-11T13:13:25.061Z,55
2017-02-11T13:14:34.022Z,55
2017-02-11T13:15:42.975Z,55
2017-02-11T13:16:51.924Z,60
2017-02-11T13:18:00.874Z,60
2017-02-11T13:19:09.825Z,60
2017-02-11T13:20:18.775Z,60
2017-02-11T13:21:27.728Z,60
2017-02-11T13:22:36.681Z,60
2017-02-11T13:23:45.638Z,60
2017-02-11T13:24:54.584Z,60
2017-02-11T13:26:03.623Z,60
2017-02-11T13:27:12.571Z,60
2017-02-11T13:28:21.608Z,65
2017-02-11T13:29:30.649Z,70
2017-02-11T13:30:39.596Z,75
2017-02-11T13:31:48.950Z,80
2017-02-11T13:32:57.901Z,80
2017-02-11T13:34:06.849Z,85
2017-02-11T13:35:15.800Z,90
2017-02-11T13:36:24.750Z,90
2017-02-11T13:37:33.702Z,85
2017-02-11T13:38:42.810Z,80
2017-02-11T13:39:51.763Z,80
2017-02-11T13:41:00.711Z,80
2017-02-11T13:42:09.661Z,80
2017-02-11T13:43:18.613Z,75
2017-02-11T13:44:27.560Z,70
2017-02-11T13:45:36.505Z,70
2017-02-11T13:46:45.451Z,70
2017-02-11T13:47:54.394Z,70
2017-02-11T13:49:03.517Z,65
2017-02-11T13:50:12.474Z,70
2017-02-11T13:51:21.419Z,65
2017-02-11T13:52:30.453Z,65
2017-02-11T13:53:39.428Z,65
2017-02-11T13:54:48.376Z,65
2017-02-11T13:55:57.733Z,60
2017-02-11T13:57:06.683Z,55
2017-02-11T13:58:16.297Z,50
2017-02-11T13:59:25.333Z,45
2017-02-11T14:00:34.281Z,40
2017-02-11T14:01:43.235Z,40
2017-02-11T14:02:52.187Z,40
2017-02-11T14:04:01.142Z,40
2017-02-11T14:05:10.504Z,40
2017-02-11T14:06:19.541Z,45
2017-02-11T14:07:28.493Z,50
2017-02-11T14:08:37.443Z,50
2017-02-11T14:09:46.394Z,55
2017-02-11T14:10:55.342Z,55
2017-02-11T14:12:04.300Z,60
2017-02-11T14:13:13.250Z,55
2017-02-11T14:14:22.203Z,55
2017-02-11T14:15:31.152Z,60
2017-02-11T14:16:40.105Z,60
2017-02-11T14:17:49.057Z,65
2017-02-11T14:18:58.010Z,65
2017-02-11T14:20:07.368Z,60
2017-02-11T14:21:16.315Z,60
2017-02-11T14:22:25.268Z,60
2017-02-11T14:23:34.216Z,60
2017-02-11T14:24:43.571Z,55
2017-02-11T14:25:52.526Z,50
2017-02-11T14:27:01.478Z,50
2017-02-11T14:28:10.430Z,45
2017-02-11T14:29:19.374Z,45
2017-02-11T14:30:28.322Z,45
2017-02-11T14:31:37.308Z,45
2017-02-11T14:32:46.258Z,45
2017-02-11T14:33:55.204Z,45
2017-02-11T14:35:04.564Z,40
2017-02-11T14:36:13.510Z,40
2017-02-11T14:37:22.459Z,40
2017-02-11T14:38:31.490Z,40
2017-02-11T14:39:40.439Z,40
2017-02-11T14:40:49.389Z,40
2017-02-11T14:41:58.340Z,40
2017-02-11T14:43:07.295Z,35
2017-02-11T14:44:16.246Z,35
2017-02-11T14:45:25.204Z,35
2017-02-11T14:46:34.241Z,30
2017-02-11T14:47:43.188Z,30
2017-02-11T14:48:52.139Z,30
2017-02-11T14:50:01.089Z,30
2017-02-11T14:51:10.046Z,30
2017-02-11T14:52:18.999Z,25
2017-02-11T14:53:27.948Z,25
2017-02-11T14:54:36.893Z,25
2017-02-11T14:55:45.843Z,25
2017-02-11T14:56:54.791Z,25
2017-02-11T14:58:03.744Z,25
2017-02-11T14:59:12.690Z,25
2017-02-11T15:00:21.634Z,25
2017-02-11T15:01:30.993Z,20
2017-02-11T15:02:39.945Z,20
2017-02-11T15:03:49.305Z,20
2017-02-11T15:04:58.255Z,20
2017-02-11T15:06:07.201Z,20
2017-02-11T15:07:16.148Z,20
2017-02-11T15:08:25.188Z,15
2017-02-11T15:09:34.137Z,15
2017-02-11T15:10:43.083Z,15
2017-02-11T15:11:52.049Z,15
2017-02-11T15:13:01.407Z,15
2017-02-11T15:14:10.358Z,15
2017-02-11T15:15:19.305Z,15
2017-02-11T15:16:28.255Z,15
2017-02-11T15:17:37.201Z,10
2017-02-11T15:18:46.144Z,10
2017-02-11T15:19:55.505Z,10
2017-02-11T15:21:04.454Z,10
2017-02-11T15:22:13.489Z,10
2017-02-11T15:23:22.443Z,10
2017-02-11T15:24:31.392Z,10
2017-02-11T15:25:40.343Z,10
2017-02-11T15:26:49.293Z,10
2017-02-11T15:27:58.330Z,10
2017-02-11T15:29:07.278Z,10
2017-02-11T15:30:16.259Z,10
2017-02-11T15:31:25.207Z,10
2017-02-11T15:32:34.560Z,5
2017-02-11T15:33:43.513Z,5
2017-02-11T15:34:52.469Z,5
2017-02-11T15:36:01.421Z,5
2017-02-11T15:37:10.370Z,5
2017-02-11T15:38:19.317Z,5
2017-02-11T15:39:28.270Z,5
2017-02-11T15:40:37.306Z,5
2017-02-11T15:41:46.258Z,5
2017-02-11T15:42:55.295Z,5
2017-02-11T15:44:04.653Z,5
2017-02-11T15:45:13.608Z,5
2017-02-11T15:46:22.643Z,5
2017-02-11T15:47:31.596Z,0
2017-02-11T15:48:40.951Z,0
2017-02-11T15:49:49.908Z,0
2017-02-11T15:50:58.947Z,0
2017-02-11T15:52:07.899Z,0
2017-02-11T15:53:16.852Z,0
2017-02-11T15:54:25.798Z,0
2017-02-11T15:55:34.745Z,0
2017-02-11T15:56:43.695Z,0
2017-02-11T15:57:53.050Z,0
2017-02-11T15:59:01.998Z,0
2017-02-11T16:00:10.952Z,0
2017-02-11T16:01:19.899Z,0
2017-02-11T16:02:29.551Z,0
2017-02-11T16:03:40.865Z,0
2017-02-11T16:04:56.450Z,0
2017-02-11T16:06:06.423Z,0
2017-02-11T16:07:15.458Z,0
2017-02-11T16:08:24.403Z,0
2017-02-11T16:09:33.350Z,0
2017-02-11T16:10:42.300Z,0
2017-02-11T16:11:51.250Z,0
2017-02-11T16:13:00.196Z,0
2017-02-11T16:14:09.150Z,0
2017-02-11T16:15:18.097Z,0
2017-02-11T16:16:27.043Z,0
2017-02-11T16:17:35.991Z,0
2017-02-11T16:18:44.948Z,0
2017-02-11T16:19:53.898Z,0
2017-02-11T16:21:02.849Z,0
2017-02-11T16:22:11.891Z,0
2017-02-11T16:23:20.848Z,0
2017-02-11T16:24:29.799Z,0
2017-02-11T16:25:38.834Z,0
2017-02-11T16:26:47.782Z,0
2017-02-11T16:27:56.726Z,0
2017-02-11T16:29:05.679Z,0
2017-02-11T16:30:14.630Z,0
2017-02-11T16:31:23.578Z,0
2017-02-11T16:32:32.569Z,0
2017-02-11T16:33:41.520Z,0
2017-02-11T16:34:50.462Z,0
2017-02-11T16:35:59.413Z,0
2017-02-11T16:37:08.371Z,0
2017-02-11T16:38:17.323Z,0
2017-02-11T16:39:26.271Z,0
2017-02-11T16:40:35.217Z,0
2017-02-11T16:41:44.170Z,0